createdAt,value
2022-12-28T00:01:51.287Z,13.23
2022-12-28T00:04:18.560Z,13.57
2022-12-28T00:06:47.582Z,15.18
2022-12-28T00:09:14.890Z,11.90
2022-12-28T00:11:42.165Z,15.15
2022-12-28T00:14:09.618Z,15.27
2022-12-28T00:16:39.628Z,14.85
2022-12-28T00:19:12.751Z,11.73
2022-12-28T00:21:40.506Z,14.50
2022-12-28T00:24:08.920Z,16.35
2022-12-28T00:26:36.489Z,12.85
2022-12-28T00:29:05.511Z,18.50
2022-12-28T00:31:34.551Z,21.40
2022-12-28T00:34:03.404Z,16.35
2022-12-28T00:37:09.695Z,12.57
2022-12-28T00:39:20.679Z,15.15
2022-12-28T00:41:47.957Z,16.65
2022-12-28T00:44:15.211Z,13.57
2022-12-28T00:46:42.446Z,12.13
2022-12-28T00:49:09.779Z,11.55
2022-12-28T00:51:37.058Z,10.73
2022-12-28T00:54:04.596Z,13.40
2022-12-28T00:56:32.004Z,11.32
2022-12-28T00:59:00.409Z,11.75
2022-12-28T01:01:29.510Z,14.10
2022-12-28T01:03:59.589Z,14.43
2022-12-28T01:06:29.288Z,14.82
2022-12-28T01:08:59.988Z,14.05
2022-12-28T01:11:30.557Z,10.40
2022-12-28T01:14:00.373Z,11.35
2022-12-28T01:16:30.819Z,11.27
2022-12-28T01:19:00.333Z,13.05
2022-12-28T01:21:30.696Z,12.35
2022-12-28T01:24:00.791Z,11.30
2022-12-28T01:26:28.583Z,14.40
2022-12-28T01:28:57.875Z,14.15
2022-12-28T01:31:25.383Z,13.65
2022-12-28T01:33:53.627Z,11.27
2022-12-28T01:36:24.788Z,13.88
2022-12-28T01:38:57.425Z,13.30
2022-12-28T01:41:26.662Z,16.52
2022-12-28T01:43:53.979Z,15.52
2022-12-28T01:46:46.806Z,12.80
2022-12-28T01:49:16.511Z,20.88
2022-12-28T01:52:07.642Z,18.63
2022-12-28T01:54:42.518Z,14.32
2022-12-28T01:57:09.864Z,13.68
2022-12-28T01:59:42.143Z,17.13
2022-12-28T02:02:12.467Z,16.17
2022-12-28T02:04:39.968Z,12.95
2022-12-28T02:07:07.468Z,20.98
2022-12-28T02:09:40.699Z,20.45
2022-12-28T02:12:13.440Z,16.80
2022-12-28T02:14:44.037Z,20.30
2022-12-28T02:17:13.394Z,23.58
2022-12-28T02:19:48.939Z,15.35
2022-12-28T02:23:00.474Z,16.35
2022-12-28T02:25:34.276Z,20.30
2022-12-28T02:28:12.973Z,18.25
2022-12-28T02:31:03.720Z,21.58
2022-12-28T02:34:02.487Z,18.10
2022-12-28T02:36:41.777Z,19.73
2022-12-28T02:39:18.931Z,21.08
2022-12-28T02:41:48.125Z,18.00
2022-12-28T02:44:36.487Z,20.67
2022-12-28T02:47:23.011Z,19.15
2022-12-28T02:50:08.431Z,20.83
2022-12-28T02:53:17.933Z,22.70
2022-12-28T02:56:08.869Z,23.58
2022-12-28T02:58:57.470Z,22.98
2022-12-28T03:01:49.121Z,21.65
2022-12-28T03:04:31.307Z,24.92
2022-12-28T03:07:29.482Z,22.88
2022-12-28T03:10:15.939Z,22.55
2022-12-28T03:12:48.783Z,23.17
2022-12-28T03:15:31.997Z,24.20
2022-12-28T03:18:34.946Z,25.50
2022-12-28T03:21:27.320Z,21.02
2022-12-28T03:24:15.147Z,22.38
2022-12-28T03:27:07.446Z,23.80
2022-12-28T03:30:06.033Z,23.88
2022-12-28T03:32:35.284Z,24.95
2022-12-28T03:35:03.781Z,23.60
2022-12-28T03:37:50.245Z,25.77
2022-12-28T03:40:43.082Z,22.30
2022-12-28T03:43:41.387Z,21.38
2022-12-28T03:46:29.773Z,20.30
2022-12-28T03:49:01.991Z,23.63
2022-12-28T03:51:32.599Z,18.42
2022-12-28T03:54:05.307Z,19.88
2022-12-28T03:56:32.917Z,23.75
2022-12-28T03:59:02.708Z,20.33
2022-12-28T04:01:39.932Z,21.98
2022-12-28T04:04:07.291Z,20.73
2022-12-28T04:06:35.199Z,22.73
2022-12-28T04:09:04.447Z,18.05
2022-12-28T04:14:10.315Z,22.13
2022-12-28T04:16:40.458Z,19.13
2022-12-28T04:19:13.641Z,19.55
2022-12-28T04:21:41.008Z,20.75
2022-12-28T04:24:08.418Z,21.73
2022-12-28T04:26:36.796Z,22.05
2022-12-28T04:29:04.313Z,21.38
2022-12-28T04:31:34.319Z,22.80
2022-12-28T04:34:06.611Z,24.73
2022-12-28T04:36:39.744Z,24.27
2022-12-28T04:39:11.451Z,25.38
2022-12-28T04:41:38.774Z,20.77
2022-12-28T04:44:06.650Z,20.95
2022-12-28T04:46:34.136Z,20.15
2022-12-28T04:49:01.575Z,20.60
2022-12-28T04:51:30.023Z,19.70
2022-12-28T04:53:58.654Z,22.10
2022-12-28T04:56:27.403Z,17.73
2022-12-28T04:58:59.947Z,21.40
2022-12-28T05:01:27.723Z,20.42
2022-12-28T05:03:58.050Z,18.02
2022-12-28T05:06:28.122Z,19.27
2022-12-28T05:08:56.975Z,19.75
2022-12-28T05:11:27.782Z,18.27
2022-12-28T05:13:55.533Z,20.17
2022-12-28T05:16:25.347Z,20.05
2022-12-28T05:18:52.734Z,19.98
2022-12-28T05:21:22.643Z,17.83
2022-12-28T05:23:51.048Z,18.58
2022-12-28T05:26:22.300Z,20.83
2022-12-28T05:28:50.261Z,17.38
2022-12-28T05:31:20.400Z,17.02
2022-12-28T05:33:48.359Z,17.23
2022-12-28T05:36:18.368Z,19.75
2022-12-28T05:38:46.180Z,19.52
2022-12-28T05:41:16.230Z,19.00
2022-12-28T05:43:44.877Z,21.85
2022-12-28T05:46:15.237Z,17.77
2022-12-28T05:48:43.576Z,20.10
2022-12-28T05:51:16.605Z,18.73
2022-12-28T05:53:44.470Z,17.92
2022-12-28T05:56:17.721Z,18.08
2022-12-28T05:58:46.828Z,18.58
2022-12-28T06:01:16.788Z,18.77
2022-12-28T06:03:46.950Z,18.35
2022-12-28T06:06:17.363Z,19.63
2022-12-28T06:08:45.976Z,20.67
2022-12-28T06:11:17.292Z,17.00
2022-12-28T06:13:44.680Z,19.30
2022-12-28T06:16:14.941Z,19.60
2022-12-28T06:18:43.152Z,19.52
2022-12-28T06:21:13.451Z,17.77
2022-12-28T06:23:41.804Z,21.55
2022-12-28T06:26:11.033Z,19.67
2022-12-28T06:28:38.674Z,19.52
2022-12-28T06:31:07.175Z,20.98
2022-12-28T06:33:35.236Z,20.63
2022-12-28T06:36:03.669Z,20.17
2022-12-28T06:38:33.092Z,20.85
2022-12-28T06:41:14.290Z,20.35
2022-12-28T06:43:43.676Z,22.35
2022-12-28T06:46:12.479Z,22.13
2022-12-28T06:48:40.694Z,21.88
2022-12-28T06:51:28.711Z,25.80
2022-12-28T06:53:56.784Z,21.35
2022-12-28T06:56:31.146Z,23.88
2022-12-28T06:59:03.199Z,21.02
2022-12-28T07:01:34.918Z,21.38
2022-12-28T07:04:04.311Z,23.55
2022-12-28T07:06:36.456Z,24.80
2022-12-28T07:09:07.108Z,22.55
2022-12-28T07:11:34.969Z,23.02
2022-12-28T07:14:02.704Z,22.73
2022-12-28T07:18:58.256Z,23.42
2022-12-28T07:21:31.807Z,23.67
2022-12-28T07:23:59.575Z,23.05
2022-12-28T07:26:30.044Z,24.48
2022-12-28T07:28:59.344Z,23.25
2022-12-28T07:31:40.017Z,22.48
2022-12-28T07:34:09.112Z,23.20
2022-12-28T07:36:36.399Z,23.45
2022-12-28T07:39:05.149Z,21.63
2022-12-28T07:41:33.870Z,19.67
2022-12-28T07:44:01.846Z,25.00
2022-12-28T07:46:31.557Z,20.52
2022-12-28T07:48:59.719Z,22.63
2022-12-28T07:51:32.419Z,21.52
2022-12-28T07:54:00.355Z,25.70
2022-12-28T07:56:29.415Z,21.52
2022-12-28T07:58:59.334Z,21.15
2022-12-28T08:01:29.599Z,19.67
2022-12-28T08:03:59.631Z,19.13
2022-12-28T08:06:29.096Z,20.10
2022-12-28T08:08:59.783Z,22.33
2022-12-28T08:11:30.043Z,21.00
2022-12-28T08:13:58.786Z,20.33
2022-12-28T08:16:28.392Z,22.17
2022-12-28T08:18:56.447Z,20.08
2022-12-28T08:21:28.397Z,23.67
2022-12-28T08:26:29.943Z,17.25
2022-12-28T08:29:00.903Z,18.75
2022-12-28T08:31:33.450Z,18.92
2022-12-28T08:34:02.453Z,19.75
2022-12-28T08:36:30.653Z,19.23
2022-12-28T08:38:58.857Z,18.95
2022-12-28T08:41:27.704Z,21.13
2022-12-28T08:43:55.954Z,19.27
2022-12-28T08:46:31.360Z,17.13
2022-12-28T08:49:00.820Z,15.88
2022-12-28T08:51:32.618Z,13.88
2022-12-28T08:54:00.723Z,16.05
2022-12-28T08:56:31.091Z,20.45
2022-12-28T08:58:59.202Z,17.52
2022-12-28T09:01:32.820Z,17.08
2022-12-28T09:04:03.809Z,16.15
2022-12-28T09:06:36.906Z,17.02
2022-12-28T09:09:07.430Z,14.27
2022-12-28T09:11:36.971Z,14.95
2022-12-28T09:14:06.553Z,14.77
2022-12-28T09:16:34.125Z,16.10
2022-12-28T09:19:04.191Z,15.82
2022-12-28T09:21:34.722Z,17.65
2022-12-28T09:24:02.737Z,16.30
2022-12-28T09:26:32.488Z,19.13
2022-12-28T09:29:01.875Z,16.42
2022-12-28T09:31:32.629Z,16.02
2022-12-28T09:34:35.051Z,16.92
2022-12-28T09:36:51.429Z,15.50
2022-12-28T09:39:20.951Z,13.90
2022-12-28T09:42:04.494Z,14.45
2022-12-28T09:45:00.791Z,13.68
2022-12-28T09:47:52.033Z,14.95
2022-12-28T09:50:19.290Z,14.30
2022-12-28T09:53:23.442Z,13.88
2022-12-28T09:56:16.934Z,16.25
2022-12-28T09:58:48.054Z,13.73
2022-12-28T10:01:17.402Z,14.43
2022-12-28T10:03:47.492Z,11.60
2022-12-28T10:06:24.344Z,14.05
2022-12-28T10:08:54.971Z,15.52
2022-12-28T10:11:26.650Z,10.82
2022-12-28T10:14:00.758Z,11.48
2022-12-28T10:16:32.909Z,12.98
2022-12-28T10:19:00.939Z,13.48
2022-12-28T10:21:33.121Z,11.45
2022-12-28T10:24:30.973Z,14.77
2022-12-28T10:26:54.037Z,12.15
2022-12-28T10:29:23.751Z,12.32
2022-12-28T10:32:01.961Z,12.35
2022-12-28T10:34:34.972Z,11.32
2022-12-28T10:37:14.716Z,12.63
2022-12-28T10:40:12.137Z,11.77
2022-12-28T10:42:46.610Z,9.88
2022-12-28T10:45:18.797Z,14.65
2022-12-28T10:47:51.958Z,10.25
2022-12-28T10:50:42.853Z,11.38
2022-12-28T10:53:24.352Z,12.60
2022-12-28T10:56:02.671Z,10.35
2022-12-28T10:58:31.862Z,13.55
2022-12-28T11:01:05.256Z,10.85
2022-12-28T11:03:37.874Z,11.57
2022-12-28T11:06:12.711Z,8.80
2022-12-28T11:08:41.332Z,11.43
2022-12-28T11:11:18.268Z,11.20
2022-12-28T11:13:50.262Z,14.60
2022-12-28T11:18:45.000Z,12.07
2022-12-28T11:21:19.530Z,10.20
2022-12-28T11:23:49.316Z,8.18
2022-12-28T11:26:18.132Z,9.90
2022-12-28T11:28:48.551Z,9.75
2022-12-28T11:31:25.757Z,15.13
2022-12-28T11:33:58.534Z,9.00
2022-12-28T11:36:27.604Z,9.55
2022-12-28T11:38:56.564Z,11.68
2022-12-28T11:41:26.473Z,10.15
2022-12-28T11:44:04.861Z,10.18
2022-12-28T11:46:32.139Z,10.05
2022-12-28T11:49:05.269Z,10.52
2022-12-28T11:51:33.857Z,9.80
2022-12-28T11:54:03.891Z,8.85
2022-12-28T11:56:46.724Z,9.05
2022-12-28T11:59:28.904Z,12.00
2022-12-28T12:02:06.140Z,9.25
2022-12-28T12:04:37.944Z,9.88
2022-12-28T12:07:05.547Z,9.13
2022-12-28T12:09:35.176Z,7.82
2022-12-28T12:12:23.627Z,6.60
2022-12-28T12:15:11.153Z,10.18
2022-12-28T12:18:14.863Z,8.52
2022-12-28T12:20:53.118Z,7.43
2022-12-28T12:23:30.473Z,8.63
2022-12-28T12:26:01.103Z,9.60
2022-12-28T12:28:36.083Z,6.07
2022-12-28T12:31:07.938Z,9.23
2022-12-28T12:36:31.701Z,9.68
2022-12-28T12:39:08.987Z,7.15
2022-12-28T12:41:53.546Z,6.97
2022-12-28T12:44:36.251Z,6.25
2022-12-28T12:47:39.363Z,9.07
2022-12-28T12:50:51.067Z,5.93
2022-12-28T12:53:59.763Z,5.47
2022-12-28T12:56:48.586Z,5.78
2022-12-28T12:59:39.975Z,9.05
2022-12-28T13:02:16.117Z,6.35
2022-12-28T13:04:46.238Z,8.48
2022-12-28T13:07:24.180Z,7.10
2022-12-28T13:09:55.748Z,7.40
2022-12-28T13:12:24.359Z,5.78
2022-12-28T13:15:07.356Z,6.65
2022-12-28T13:17:38.106Z,5.55
2022-12-28T13:20:11.457Z,6.63
2022-12-28T13:22:45.363Z,6.57
2022-12-28T13:25:29.830Z,6.05
2022-12-28T13:27:58.999Z,6.63
2022-12-28T13:30:28.542Z,11.55
2022-12-28T13:33:01.162Z,9.07
2022-12-28T13:35:31.692Z,6.75
2022-12-28T13:38:13.678Z,10.18
2022-12-28T13:43:47.117Z,6.65
2022-12-28T13:46:18.089Z,6.68
2022-12-28T13:48:49.267Z,7.28
2022-12-28T13:51:18.867Z,6.45
2022-12-28T13:53:49.991Z,6.80
2022-12-28T13:56:19.877Z,6.63
2022-12-28T13:58:55.932Z,7.72
2022-12-28T14:01:27.004Z,8.95
2022-12-28T14:04:33.613Z,8.32
2022-12-28T14:06:51.315Z,7.80
2022-12-28T14:09:20.607Z,6.85
2022-12-28T14:11:49.082Z,5.78
2022-12-28T14:14:17.426Z,5.32
2022-12-28T14:16:45.136Z,8.95
2022-12-28T14:19:13.076Z,9.75
2022-12-28T14:21:43.409Z,9.68
2022-12-28T14:24:13.574Z,5.95
2022-12-28T14:26:50.087Z,7.95
2022-12-28T14:29:35.564Z,7.25
2022-12-28T14:32:06.718Z,9.60
2022-12-28T14:34:37.469Z,10.32
2022-12-28T14:37:06.843Z,6.22
2022-12-28T14:39:43.944Z,12.63
2022-12-28T14:42:37.299Z,6.93
2022-12-28T14:46:07.252Z,7.07
2022-12-28T14:48:40.617Z,10.95
2022-12-28T14:51:17.501Z,8.23
2022-12-28T14:53:45.465Z,9.05
2022-12-28T14:56:18.420Z,7.47
2022-12-28T14:58:50.463Z,7.95
2022-12-28T15:01:21.569Z,7.45
2022-12-28T15:03:57.583Z,6.43
2022-12-28T15:06:30.278Z,6.15
2022-12-28T15:08:59.080Z,7.75
2022-12-28T15:11:29.180Z,8.15
2022-12-28T15:13:57.752Z,6.75
2022-12-28T15:16:25.068Z,10.57
2022-12-28T15:18:53.207Z,6.38
2022-12-28T15:21:22.972Z,7.78
2022-12-28T15:23:55.070Z,7.30
2022-12-28T15:26:23.897Z,7.25
2022-12-28T15:28:51.705Z,7.80
2022-12-28T15:31:21.609Z,6.40
2022-12-28T15:33:49.338Z,7.47
2022-12-28T15:36:19.560Z,7.28
2022-12-28T15:38:48.628Z,7.07
2022-12-28T15:41:36.210Z,10.20
2022-12-28T15:44:07.224Z,7.25
2022-12-28T15:46:34.688Z,11.55
2022-12-28T15:49:03.141Z,8.35
2022-12-28T15:51:30.436Z,6.82
2022-12-28T15:53:57.908Z,8.40
2022-12-28T15:56:33.914Z,5.05
2022-12-28T15:59:03.811Z,5.90
2022-12-28T16:01:32.433Z,7.95
2022-12-28T16:04:02.600Z,5.57
2022-12-28T16:06:35.921Z,8.10
2022-12-28T16:09:06.069Z,6.80
2022-12-28T16:11:34.428Z,7.60
2022-12-28T16:14:04.834Z,6.72
2022-12-28T16:16:37.561Z,7.35
2022-12-28T16:19:07.139Z,7.18
2022-12-28T16:21:35.240Z,9.73
2022-12-28T16:24:02.574Z,9.05
2022-12-28T16:26:30.025Z,6.72
2022-12-28T16:28:59.445Z,12.02
2022-12-28T16:31:28.092Z,5.45
2022-12-28T16:34:01.624Z,6.68
2022-12-28T16:36:29.659Z,8.15
2022-12-28T16:38:57.356Z,6.00
2022-12-28T16:41:25.894Z,7.07
2022-12-28T16:44:01.855Z,6.57
2022-12-28T16:46:29.305Z,8.27
2022-12-28T16:48:59.419Z,9.68
2022-12-28T16:51:26.726Z,7.43
2022-12-28T16:53:54.427Z,10.23
2022-12-28T16:56:21.800Z,6.82
2022-12-28T16:58:49.393Z,5.15
2022-12-28T17:01:17.096Z,9.13
2022-12-28T17:03:44.524Z,7.32
2022-12-28T17:06:14.169Z,6.93
2022-12-28T17:08:41.428Z,10.02
2022-12-28T17:11:10.650Z,8.32
2022-12-28T17:13:38.936Z,6.75
2022-12-28T17:16:07.297Z,8.35
2022-12-28T17:18:35.022Z,8.13
2022-12-28T17:21:06.711Z,7.20
2022-12-28T17:23:34.711Z,7.95
2022-12-28T17:26:02.383Z,7.53
2022-12-28T17:28:29.863Z,9.75
2022-12-28T17:31:06.344Z,10.45
2022-12-28T17:33:39.180Z,7.30
2022-12-28T17:36:09.355Z,7.47
2022-12-28T17:38:37.129Z,7.28
2022-12-28T17:41:13.918Z,7.63
2022-12-28T17:43:46.511Z,10.25
2022-12-28T17:46:14.045Z,6.13
2022-12-28T17:48:41.596Z,5.50
2022-12-28T17:51:11.354Z,8.68
2022-12-28T17:53:40.606Z,7.63
2022-12-28T17:56:14.797Z,8.77
2022-12-28T17:58:44.337Z,10.07
2022-12-28T18:01:13.835Z,6.90
2022-12-28T18:03:41.656Z,8.90
2022-12-28T18:06:09.019Z,9.82
2022-12-28T18:08:36.574Z,6.75
2022-12-28T18:11:04.173Z,7.60
2022-12-28T18:13:31.543Z,8.27
2022-12-28T18:15:58.884Z,9.30
2022-12-28T18:18:26.283Z,9.43
2022-12-28T18:21:07.908Z,8.48
2022-12-28T18:23:35.612Z,8.48
2022-12-28T18:26:09.561Z,8.20
2022-12-28T18:28:37.376Z,14.73
2022-12-28T18:31:05.809Z,10.20
2022-12-28T18:33:34.413Z,9.65
2022-12-28T18:36:03.646Z,10.02
2022-12-28T18:38:31.763Z,10.43
2022-12-28T18:41:00.230Z,10.80
2022-12-28T18:43:27.605Z,11.07
2022-12-28T18:46:01.067Z,9.98
2022-12-28T18:48:30.118Z,11.80
2022-12-28T18:51:00.320Z,13.55
2022-12-28T18:53:28.834Z,10.23
2022-12-28T18:55:58.324Z,11.55
2022-12-28T18:58:30.122Z,11.13
2022-12-28T19:01:04.754Z,9.27
2022-12-28T19:03:32.814Z,11.75
2022-12-28T19:06:03.330Z,8.40
2022-12-28T19:08:32.653Z,6.95
2022-12-28T19:11:01.390Z,10.95
2022-12-28T19:13:32.902Z,7.40
2022-12-28T19:16:01.152Z,8.85
2022-12-28T19:18:28.606Z,8.05
2022-12-28T19:20:58.321Z,8.48
2022-12-28T19:23:26.595Z,10.40
2022-12-28T19:25:59.636Z,8.70
2022-12-28T19:28:27.213Z,8.27
2022-12-28T19:30:58.130Z,7.82
2022-12-28T19:33:28.914Z,8.00
2022-12-28T19:35:56.183Z,8.23
2022-12-28T19:38:23.947Z,6.57
2022-12-28T19:40:52.653Z,7.50
2022-12-28T19:43:20.473Z,9.10
2022-12-28T19:45:47.966Z,8.88
2022-12-28T19:48:15.815Z,9.45
2022-12-28T19:50:43.202Z,10.93
2022-12-28T19:53:11.255Z,8.55
2022-12-28T19:55:39.979Z,9.00
2022-12-28T19:58:07.302Z,7.53
2022-12-28T20:00:35.160Z,8.40
2022-12-28T20:03:02.571Z,7.25
2022-12-28T20:05:30.235Z,6.88
2022-12-28T20:07:57.553Z,8.43
2022-12-28T20:10:25.098Z,7.82
2022-12-28T20:12:54.144Z,7.95
2022-12-28T20:15:21.417Z,5.75
2022-12-28T20:17:48.794Z,11.20
2022-12-28T20:20:17.695Z,7.45
2022-12-28T20:22:46.095Z,7.30
2022-12-28T20:25:13.795Z,7.78
2022-12-28T20:27:41.083Z,8.57
2022-12-28T20:30:08.906Z,7.57
2022-12-28T20:32:41.250Z,9.43
2022-12-28T20:35:12.527Z,7.60
2022-12-28T20:37:39.997Z,7.18
2022-12-28T20:40:08.080Z,6.65
2022-12-28T20:42:54.093Z,7.18
2022-12-28T20:45:21.519Z,8.18
2022-12-28T20:47:49.418Z,7.80
2022-12-28T20:50:17.048Z,6.45
2022-12-28T20:52:44.578Z,9.13
2022-12-28T20:55:12.866Z,8.70
2022-12-28T20:57:40.457Z,7.55
2022-12-28T21:00:08.615Z,7.05
2022-12-28T21:02:36.023Z,7.03
2022-12-28T21:05:03.833Z,7.75
2022-12-28T21:07:32.721Z,6.43
2022-12-28T21:10:00.157Z,6.30
2022-12-28T21:12:27.834Z,9.73
2022-12-28T21:14:56.074Z,10.45
2022-12-28T21:17:24.854Z,6.90
2022-12-28T21:19:52.574Z,6.95
2022-12-28T21:22:20.143Z,7.82
2022-12-28T21:24:47.915Z,8.13
2022-12-28T21:27:15.644Z,8.00
2022-12-28T21:29:43.463Z,7.40
2022-12-28T21:32:11.054Z,7.13
2022-12-28T21:34:38.381Z,7.15
2022-12-28T21:37:24.260Z,6.97
2022-12-28T21:39:51.635Z,7.78
2022-12-28T21:42:18.866Z,5.75
2022-12-28T21:44:46.138Z,5.60
2022-12-28T21:47:13.479Z,6.97
2022-12-28T21:49:42.385Z,6.80
2022-12-28T21:52:09.657Z,7.07
2022-12-28T21:54:37.383Z,5.80
2022-12-28T21:57:06.260Z,5.90
2022-12-28T21:59:34.369Z,7.53
2022-12-28T22:02:36.000Z,7.22
2022-12-28T22:05:23.193Z,11.45
2022-12-28T22:08:11.049Z,6.80
2022-12-28T22:10:57.045Z,7.60
2022-12-28T22:13:24.669Z,7.20
2022-12-28T22:15:52.284Z,5.38
2022-12-28T22:19:00.832Z,6.50
2022-12-28T22:21:10.199Z,7.65
2022-12-28T22:23:37.707Z,5.35
2022-12-28T22:26:05.411Z,7.15
2022-12-28T22:28:32.721Z,5.72
2022-12-28T22:31:07.885Z,5.63
2022-12-28T22:33:35.813Z,5.68
2022-12-28T22:36:18.716Z,7.82
2022-12-28T22:38:46.723Z,5.30
2022-12-28T22:41:14.027Z,5.78
2022-12-28T22:43:41.992Z,5.00
2022-12-28T22:46:11.710Z,6.95
2022-12-28T22:48:39.342Z,6.85
2022-12-28T22:51:09.274Z,6.70
2022-12-28T22:53:37.548Z,6.32
2022-12-28T22:56:08.802Z,4.90
2022-12-28T22:58:36.707Z,5.22
2022-12-28T23:01:16.601Z,4.85
2022-12-28T23:03:46.242Z,5.53
2022-12-28T23:06:15.927Z,4.97
2022-12-28T23:08:43.501Z,5.95
2022-12-28T23:11:32.888Z,4.65
2022-12-28T23:14:19.872Z,5.07
2022-12-28T23:16:48.129Z,6.85
2022-12-28T23:19:34.770Z,4.60
2022-12-28T23:22:25.549Z,5.43
2022-12-28T23:25:11.363Z,4.43
2022-12-28T23:27:41.534Z,5.60
2022-12-28T23:30:12.322Z,5.07
2022-12-28T23:32:39.882Z,4.47
2022-12-28T23:35:11.224Z,4.32
2022-12-28T23:37:39.622Z,5.47
2022-12-28T23:40:08.821Z,4.75
2022-12-28T23:42:37.333Z,5.13
2022-12-28T23:45:06.404Z,4.13
2022-12-28T23:47:34.306Z,6.18
2022-12-28T23:50:02.322Z,5.18
2022-12-28T23:52:29.693Z,5.95
2022-12-28T23:54:57.052Z,7.75
2022-12-28T23:57:24.360Z,7.15
2022-12-28T23:59:51.628Z,6.05
